createdAt,value
2022-10-13T00:00:46.581Z,13.57
2022-10-13T00:03:50.179Z,12.47
2022-10-13T00:06:53.429Z,13.00
2022-10-13T00:09:56.927Z,11.83
2022-10-13T00:13:00.145Z,13.27
2022-10-13T00:16:05.443Z,12.03
2022-10-13T00:19:12.878Z,11.87
2022-10-13T00:22:18.323Z,13.77
2022-10-13T00:25:21.716Z,12.97
2022-10-13T00:28:25.018Z,12.33
2022-10-13T00:31:30.652Z,12.43
2022-10-13T00:34:33.894Z,12.97
2022-10-13T00:37:37.126Z,12.10
2022-10-13T00:40:47.260Z,13.53
2022-10-13T00:44:01.007Z,12.90
2022-10-13T00:47:05.624Z,13.63
2022-10-13T00:50:11.087Z,13.10
2022-10-13T00:53:15.310Z,12.93
2022-10-13T00:56:20.582Z,13.27
2022-10-13T00:59:27.490Z,13.20
2022-10-13T01:02:34.812Z,13.70
2022-10-13T01:05:38.247Z,12.87
2022-10-13T01:08:41.256Z,12.80
2022-10-13T01:11:56.053Z,14.07
2022-10-13T01:15:06.598Z,13.13
2022-10-13T01:18:16.676Z,14.10
2022-10-13T01:21:29.050Z,13.33
2022-10-13T01:24:45.856Z,13.50
2022-10-13T01:28:24.960Z,12.50
2022-10-13T01:31:35.356Z,13.33
2022-10-13T01:34:45.409Z,13.07
2022-10-13T01:37:55.402Z,13.27
2022-10-13T01:41:06.471Z,13.40
2022-10-13T01:44:16.249Z,13.93
2022-10-13T01:47:21.651Z,12.70
2022-10-13T01:50:24.768Z,12.60
2022-10-13T01:53:28.499Z,12.97
2022-10-13T01:56:31.347Z,14.13
2022-10-13T01:59:38.495Z,12.03
2022-10-13T02:02:49.522Z,12.37
2022-10-13T02:06:02.793Z,10.80
2022-10-13T02:09:12.385Z,10.93
2022-10-13T02:12:21.875Z,10.17
2022-10-13T02:15:30.209Z,10.60
2022-10-13T02:18:36.937Z,10.83
2022-10-13T02:21:41.257Z,9.87
2022-10-13T02:24:44.171Z,10.00
2022-10-13T02:27:47.167Z,10.97
2022-10-13T02:30:50.172Z,10.40
2022-10-13T02:33:54.728Z,12.60
2022-10-13T02:36:57.569Z,14.40
2022-10-13T02:40:00.394Z,14.57
2022-10-13T02:43:03.622Z,14.83
2022-10-13T02:46:06.928Z,13.37
2022-10-13T02:49:12.311Z,13.67
2022-10-13T02:52:15.190Z,12.33
2022-10-13T02:55:18.136Z,12.77
2022-10-13T02:58:21.004Z,11.53
2022-10-13T03:01:23.852Z,11.43
2022-10-13T03:04:28.436Z,12.50
2022-10-13T03:07:31.399Z,11.60
2022-10-13T03:10:34.309Z,10.93
2022-10-13T03:13:38.341Z,11.80
2022-10-13T03:16:41.229Z,10.67
2022-10-13T03:19:45.651Z,9.73
2022-10-13T03:22:49.921Z,9.33
2022-10-13T03:25:53.117Z,9.17
2022-10-13T03:28:56.068Z,8.43
2022-10-13T03:31:58.949Z,10.07
2022-10-13T03:35:03.515Z,8.37
2022-10-13T03:38:06.347Z,8.90
2022-10-13T03:41:11.166Z,9.27
2022-10-13T03:44:14.376Z,10.27
2022-10-13T03:47:17.304Z,8.93
2022-10-13T03:50:21.577Z,9.67
2022-10-13T03:53:25.034Z,8.57
2022-10-13T03:56:28.674Z,8.93
2022-10-13T03:59:36.403Z,9.53
2022-10-13T04:02:39.988Z,8.80
2022-10-13T04:05:44.372Z,8.33
2022-10-13T04:08:47.449Z,9.97
2022-10-13T04:11:52.553Z,8.33
2022-10-13T04:14:55.750Z,8.87
2022-10-13T04:17:58.604Z,8.17
2022-10-13T04:21:03.306Z,9.13
2022-10-13T04:24:07.344Z,8.13
2022-10-13T04:27:10.475Z,8.53
2022-10-13T04:30:14.573Z,8.13
2022-10-13T04:33:17.398Z,9.47
2022-10-13T04:36:22.031Z,9.67
2022-10-13T04:39:24.897Z,10.03
2022-10-13T04:42:27.759Z,9.37
2022-10-13T04:45:30.656Z,11.17
2022-10-13T04:48:33.536Z,10.07
2022-10-13T04:51:39.076Z,9.47
2022-10-13T04:54:42.360Z,11.27
2022-10-13T04:57:45.289Z,11.63
2022-10-13T05:00:48.782Z,11.67
2022-10-13T05:03:53.444Z,10.97
2022-10-13T05:07:16.898Z,12.33
2022-10-13T05:10:20.544Z,12.80
2022-10-13T05:13:23.773Z,12.23
2022-10-13T05:16:26.768Z,12.90
2022-10-13T05:19:29.712Z,12.30
2022-10-13T05:22:34.037Z,12.07
2022-10-13T05:25:37.993Z,12.10
2022-10-13T05:28:41.486Z,12.80
2022-10-13T05:31:44.386Z,12.90
2022-10-13T05:34:49.158Z,11.57
2022-10-13T05:37:53.377Z,11.50
2022-10-13T05:40:56.195Z,10.90
2022-10-13T05:44:01.462Z,11.23
2022-10-13T05:47:07.541Z,11.30
2022-10-13T05:50:11.640Z,11.13
2022-10-13T05:53:15.912Z,11.70
2022-10-13T05:56:20.873Z,11.03
2022-10-13T05:59:27.302Z,11.77
2022-10-13T06:02:35.563Z,11.40
2022-10-13T06:05:38.944Z,13.73
2022-10-13T06:08:43.681Z,12.87
2022-10-13T06:11:46.550Z,12.57
2022-10-13T06:14:49.410Z,11.93
2022-10-13T06:17:52.246Z,13.03
2022-10-13T06:20:55.101Z,12.67
2022-10-13T06:23:59.349Z,12.83
2022-10-13T06:27:02.201Z,12.13
2022-10-13T06:30:05.669Z,13.27
2022-10-13T06:33:09.469Z,14.73
2022-10-13T06:36:12.349Z,13.50
2022-10-13T06:39:17.045Z,14.57
2022-10-13T06:42:20.097Z,14.47
2022-10-13T06:45:23.391Z,14.80
2022-10-13T06:48:26.303Z,15.20
2022-10-13T06:51:29.216Z,15.13
2022-10-13T06:54:33.468Z,14.90
2022-10-13T06:57:36.354Z,14.80
2022-10-13T07:00:41.593Z,16.27
2022-10-13T07:03:44.504Z,15.30
2022-10-13T07:06:47.331Z,16.10
2022-10-13T07:09:51.558Z,15.87
2022-10-13T07:12:54.701Z,16.10
2022-10-13T07:15:57.556Z,16.07
2022-10-13T07:19:00.434Z,16.50
2022-10-13T07:22:03.299Z,15.57
2022-10-13T07:25:08.877Z,18.33
2022-10-13T07:28:12.086Z,17.80
2022-10-13T07:31:18.239Z,17.47
2022-10-13T07:34:21.096Z,17.40
2022-10-13T07:37:24.730Z,17.13
2022-10-13T07:40:29.255Z,16.73
2022-10-13T07:43:32.282Z,18.20
2022-10-13T07:46:35.133Z,18.00
2022-10-13T07:49:38.083Z,17.33
2022-10-13T07:52:41.535Z,17.23
2022-10-13T07:55:45.770Z,18.07
2022-10-13T07:58:48.788Z,17.07
2022-10-13T08:01:51.671Z,15.77
2022-10-13T08:04:54.652Z,18.60
2022-10-13T08:07:58.492Z,16.93
2022-10-13T08:11:04.640Z,15.90
2022-10-13T08:14:07.499Z,15.33
2022-10-13T08:17:10.351Z,17.07
2022-10-13T08:20:13.848Z,16.83
2022-10-13T08:23:16.682Z,17.13
2022-10-13T08:26:22.661Z,15.93
2022-10-13T08:29:25.526Z,16.27
2022-10-13T08:32:28.558Z,16.30
2022-10-13T08:35:34.828Z,16.77
2022-10-13T08:38:37.948Z,14.70
2022-10-13T08:41:44.740Z,16.40
2022-10-13T08:45:35.870Z,14.10
2022-10-13T08:48:19.116Z,13.37
2022-10-13T08:51:22.133Z,14.43
2022-10-13T08:54:26.118Z,10.17
2022-10-13T08:57:30.316Z,14.77
2022-10-13T09:00:33.275Z,14.73
2022-10-13T09:03:44.805Z,14.70
2022-10-13T09:06:52.781Z,13.47
2022-10-13T09:09:56.425Z,12.20
2022-10-13T09:13:01.248Z,13.43
2022-10-13T09:16:04.320Z,12.40
2022-10-13T09:19:18.672Z,12.53
2022-10-13T09:22:25.552Z,11.60
2022-10-13T09:25:28.461Z,12.13
2022-10-13T09:28:33.499Z,13.17
2022-10-13T09:31:37.454Z,10.70
2022-10-13T09:34:40.406Z,10.47
2022-10-13T09:37:43.364Z,11.47
2022-10-13T09:40:58.809Z,11.33
2022-10-13T09:44:12.556Z,10.00
2022-10-13T09:47:21.730Z,9.20
2022-10-13T09:50:26.730Z,9.70
2022-10-13T09:53:33.051Z,9.70
2022-10-13T09:56:42.520Z,9.80
2022-10-13T09:59:50.402Z,9.27
2022-10-13T10:02:57.707Z,9.67
2022-10-13T10:06:03.820Z,9.87
2022-10-13T10:09:20.713Z,10.70
2022-10-13T10:12:29.915Z,9.57
2022-10-13T10:15:56.588Z,9.20
2022-10-13T10:19:04.980Z,8.03
2022-10-13T10:22:15.391Z,9.07
2022-10-13T10:25:27.997Z,9.17
2022-10-13T10:28:45.449Z,7.73
2022-10-13T10:31:59.041Z,10.23
2022-10-13T10:35:10.917Z,10.13
2022-10-13T10:38:24.627Z,10.40
2022-10-13T10:41:45.886Z,9.30
2022-10-13T10:44:51.873Z,9.77
2022-10-13T10:48:00.283Z,10.00
2022-10-13T10:51:06.531Z,9.30
2022-10-13T10:54:24.417Z,9.10
2022-10-13T10:57:34.613Z,9.60
2022-10-13T11:00:43.866Z,8.80
2022-10-13T11:03:58.400Z,7.93
2022-10-13T11:07:01.360Z,7.97
2022-10-13T11:10:22.456Z,8.63
2022-10-13T11:13:25.811Z,8.40
2022-10-13T11:16:32.537Z,8.90
2022-10-13T11:19:38.135Z,9.43
2022-10-13T11:22:41.064Z,8.57
2022-10-13T11:25:45.082Z,8.97
2022-10-13T11:28:49.221Z,7.83
2022-10-13T11:31:55.353Z,7.93
2022-10-13T11:35:02.729Z,7.23
2022-10-13T11:38:27.910Z,8.00
2022-10-13T11:41:37.033Z,8.17
2022-10-13T11:44:50.835Z,7.80
2022-10-13T11:48:19.501Z,8.03
2022-10-13T11:51:33.303Z,8.07
2022-10-13T11:54:40.462Z,7.73
2022-10-13T11:57:43.329Z,7.63
2022-10-13T12:00:57.871Z,7.60
2022-10-13T12:04:13.525Z,6.77
2022-10-13T12:07:22.745Z,7.57
2022-10-13T12:10:30.700Z,7.53
2022-10-13T12:13:35.017Z,7.97
2022-10-13T12:16:37.885Z,7.27
2022-10-13T12:19:41.434Z,7.10
2022-10-13T12:22:50.642Z,7.87
2022-10-13T12:25:58.244Z,6.13
2022-10-13T12:29:03.660Z,8.03
2022-10-13T12:32:20.479Z,7.60
2022-10-13T12:35:27.046Z,7.37
2022-10-13T12:38:31.402Z,5.93
2022-10-13T12:41:37.580Z,6.27
2022-10-13T12:44:41.148Z,6.63
2022-10-13T12:47:50.024Z,6.47
2022-10-13T12:50:53.079Z,7.57
2022-10-13T12:53:57.741Z,6.57
2022-10-13T12:57:03.039Z,7.10
2022-10-13T13:00:06.825Z,6.70
2022-10-13T13:03:26.042Z,6.10
2022-10-13T13:06:34.121Z,5.80
2022-10-13T13:09:39.207Z,7.10
2022-10-13T13:12:42.428Z,6.83
2022-10-13T13:15:45.297Z,6.20
2022-10-13T13:18:48.833Z,5.87
2022-10-13T13:24:56.856Z,7.03
2022-10-13T13:27:59.715Z,7.67
2022-10-13T13:31:02.867Z,6.30
2022-10-13T13:34:05.717Z,7.23
2022-10-13T13:37:14.624Z,6.13
2022-10-13T13:40:20.707Z,5.80
2022-10-13T13:43:23.603Z,5.47
2022-10-13T13:46:29.037Z,4.97
2022-10-13T13:49:31.920Z,6.37
2022-10-13T13:52:35.048Z,5.53
2022-10-13T13:55:39.404Z,6.00
2022-10-13T13:58:42.267Z,5.67
2022-10-13T14:01:45.184Z,5.83
2022-10-13T14:04:48.175Z,4.77
2022-10-13T14:07:53.587Z,4.90
2022-10-13T14:10:58.135Z,5.20
2022-10-13T14:14:02.454Z,5.53
2022-10-13T14:17:06.297Z,5.10
2022-10-13T14:20:10.121Z,6.00
2022-10-13T14:23:12.976Z,5.60
2022-10-13T14:26:17.506Z,6.03
2022-10-13T14:29:20.383Z,5.43
2022-10-13T14:32:23.462Z,5.87
2022-10-13T14:35:26.446Z,5.83
2022-10-13T14:38:29.406Z,4.77
2022-10-13T14:41:34.041Z,5.47
2022-10-13T14:44:36.958Z,4.70
2022-10-13T14:47:39.824Z,4.17
2022-10-13T14:50:42.703Z,4.97
2022-10-13T14:53:47.512Z,5.97
2022-10-13T14:56:51.850Z,5.47
2022-10-13T14:59:58.006Z,5.47
2022-10-13T15:03:05.298Z,5.70
2022-10-13T15:06:11.619Z,5.17
2022-10-13T15:09:14.665Z,5.33
2022-10-13T15:12:19.225Z,5.23
2022-10-13T15:15:22.561Z,6.00
2022-10-13T15:18:29.067Z,5.00
2022-10-13T15:21:32.306Z,5.70
2022-10-13T15:24:35.153Z,5.63
2022-10-13T15:27:42.003Z,6.27
2022-10-13T15:30:45.435Z,5.77
2022-10-13T15:33:49.692Z,5.10
2022-10-13T15:36:52.693Z,5.10
2022-10-13T15:39:57.507Z,6.57
2022-10-13T15:43:01.977Z,6.03
2022-10-13T15:46:06.931Z,5.70
2022-10-13T15:49:09.793Z,5.30
2022-10-13T15:52:12.692Z,5.17
2022-10-13T15:55:15.737Z,5.70
2022-10-13T15:58:20.143Z,5.17
2022-10-13T16:01:23.327Z,4.20
2022-10-13T16:04:26.419Z,5.57
2022-10-13T16:07:29.227Z,5.00
2022-10-13T16:10:32.121Z,6.27
2022-10-13T16:13:36.447Z,5.50
2022-10-13T16:16:39.284Z,5.87
2022-10-13T16:19:42.443Z,6.00
2022-10-13T16:22:45.396Z,6.37
2022-10-13T16:25:48.285Z,6.03
2022-10-13T16:28:55.733Z,7.37
2022-10-13T16:32:00.293Z,7.30
2022-10-13T16:35:03.268Z,6.67
2022-10-13T16:38:06.182Z,8.17
2022-10-13T16:41:13.015Z,7.43
2022-10-13T16:44:17.214Z,6.77
2022-10-13T16:47:20.383Z,6.60
2022-10-13T16:50:23.489Z,7.00
2022-10-13T16:53:26.391Z,6.60
2022-10-13T16:56:29.779Z,7.07
2022-10-13T16:59:34.014Z,6.70
2022-10-13T17:02:37.249Z,7.37
2022-10-13T17:05:40.161Z,6.10
2022-10-13T17:08:43.697Z,8.27
2022-10-13T17:11:46.644Z,6.37
2022-10-13T17:14:51.083Z,6.13
2022-10-13T17:17:53.961Z,5.47
2022-10-13T17:20:58.926Z,6.73
2022-10-13T17:24:01.822Z,7.17
2022-10-13T17:27:04.823Z,7.33
2022-10-13T17:30:11.313Z,7.13
2022-10-13T17:33:14.708Z,6.30
2022-10-13T17:36:20.204Z,8.40
2022-10-13T17:39:23.072Z,6.90
2022-10-13T17:42:25.954Z,6.90
2022-10-13T17:45:30.300Z,6.83
2022-10-13T17:48:33.178Z,7.03
2022-10-13T17:51:36.176Z,7.47
2022-10-13T17:54:39.185Z,8.07
2022-10-13T17:57:42.104Z,7.80
2022-10-13T18:01:12.024Z,8.40
2022-10-13T18:04:12.458Z,7.90
2022-10-13T18:07:15.792Z,8.93
2022-10-13T18:10:19.825Z,9.33
2022-10-13T18:13:22.894Z,11.63
2022-10-13T18:16:27.125Z,11.83
2022-10-13T18:19:30.035Z,11.23
2022-10-13T18:22:32.944Z,10.07
2022-10-13T18:25:36.789Z,10.10
2022-10-13T18:28:40.965Z,9.80
2022-10-13T18:31:45.263Z,9.43
2022-10-13T18:34:48.138Z,9.33
2022-10-13T18:37:52.107Z,9.23
2022-10-13T18:41:00.201Z,9.13
2022-10-13T18:44:03.892Z,10.20
2022-10-13T18:47:08.162Z,9.27
2022-10-13T18:50:11.428Z,9.23
2022-10-13T18:53:14.313Z,9.80
2022-10-13T18:56:19.809Z,9.13
2022-10-13T18:59:23.647Z,9.60
2022-10-13T19:02:27.842Z,10.03
2022-10-13T19:05:31.005Z,9.07
2022-10-13T19:08:34.204Z,8.63
2022-10-13T19:11:37.899Z,7.53
2022-10-13T19:14:40.907Z,8.70
2022-10-13T19:17:45.361Z,8.40
2022-10-13T19:20:48.207Z,8.67
2022-10-13T19:23:51.481Z,8.27
2022-10-13T19:26:56.297Z,8.53
2022-10-13T19:29:59.733Z,9.27
2022-10-13T19:33:04.077Z,9.33
2022-10-13T19:36:07.359Z,10.07
2022-10-13T19:39:15.326Z,9.17
2022-10-13T19:42:18.403Z,9.47
2022-10-13T19:45:21.251Z,10.03
2022-10-13T19:48:26.170Z,10.70
2022-10-13T19:51:29.059Z,9.43
2022-10-13T19:54:34.816Z,9.17
2022-10-13T19:57:37.736Z,11.30
2022-10-13T20:00:40.714Z,11.17
2022-10-13T20:03:44.954Z,9.83
2022-10-13T20:06:48.139Z,9.27
2022-10-13T20:09:50.977Z,9.87
2022-10-13T20:12:54.067Z,9.87
2022-10-13T20:15:56.965Z,8.93
2022-10-13T20:19:01.932Z,10.27
2022-10-13T20:22:04.969Z,9.93
2022-10-13T20:25:09.354Z,9.83
2022-10-13T20:28:12.297Z,9.87
2022-10-13T20:31:17.139Z,10.87
2022-10-13T20:34:21.399Z,10.60
2022-10-13T20:37:24.315Z,10.17
2022-10-13T20:40:27.284Z,10.47
2022-10-13T20:43:30.148Z,10.13
2022-10-13T20:46:32.992Z,9.03
2022-10-13T20:49:37.534Z,9.40
2022-10-13T20:52:40.419Z,9.87
2022-10-13T20:55:45.402Z,8.93
2022-10-13T20:58:49.016Z,8.87
2022-10-13T21:01:52.102Z,8.97
2022-10-13T21:04:56.392Z,9.13
2022-10-13T21:07:59.262Z,8.23
2022-10-13T21:11:04.809Z,8.87
2022-10-13T21:14:09.544Z,9.07
2022-10-13T21:17:12.680Z,8.87
2022-10-13T21:20:17.011Z,8.20
2022-10-13T21:23:19.881Z,8.67
2022-10-13T21:26:24.635Z,8.13
2022-10-13T21:29:27.701Z,7.37
2022-10-13T21:32:31.013Z,8.53
2022-10-13T21:35:36.577Z,9.70
2022-10-13T21:38:40.030Z,10.33
2022-10-13T21:41:42.931Z,9.47
2022-10-13T21:44:46.866Z,9.57
2022-10-13T21:47:49.724Z,8.83
2022-10-13T21:50:53.917Z,9.13
2022-10-13T21:53:58.860Z,9.80
2022-10-13T21:57:02.061Z,8.53
2022-10-13T22:00:06.767Z,10.40
2022-10-13T22:03:09.669Z,9.27
2022-10-13T22:06:18.830Z,9.43
2022-10-13T22:09:22.316Z,8.10
2022-10-13T22:12:25.327Z,8.13
2022-10-13T22:15:28.201Z,8.60
2022-10-13T22:18:31.351Z,9.23
2022-10-13T22:21:38.273Z,7.43
2022-10-13T22:24:41.133Z,5.83
2022-10-13T22:27:44.076Z,6.63
2022-10-13T22:30:46.977Z,6.20
2022-10-13T22:33:53.410Z,5.03
2022-10-13T22:36:57.625Z,4.67
2022-10-13T22:40:00.481Z,4.73
2022-10-13T22:43:03.605Z,4.13
2022-10-13T22:46:06.718Z,5.00
2022-10-13T22:49:10.201Z,3.90
2022-10-13T22:52:14.440Z,3.90
2022-10-13T22:55:17.811Z,3.13
2022-10-13T22:58:21.058Z,3.03
2022-10-13T23:01:24.799Z,2.87
2022-10-13T23:04:28.048Z,2.73
2022-10-13T23:07:32.631Z,3.23
2022-10-13T23:10:35.886Z,3.17
2022-10-13T23:13:39.160Z,2.80
2022-10-13T23:16:42.653Z,3.47
2022-10-13T23:19:45.892Z,3.33
2022-10-13T23:22:50.503Z,3.50
2022-10-13T23:25:53.763Z,3.13
2022-10-13T23:28:57.478Z,2.80
2022-10-13T23:32:00.774Z,3.10
2022-10-13T23:35:04.083Z,3.70
2022-10-13T23:38:10.180Z,3.00
2022-10-13T23:41:14.994Z,2.73
2022-10-13T23:44:18.785Z,3.10
2022-10-13T23:47:22.381Z,3.10
2022-10-13T23:50:26.204Z,2.90
2022-10-13T23:53:34.857Z,3.20
2022-10-13T23:56:38.289Z,2.60
2022-10-13T23:59:41.562Z,3.07
